MKY weather

Mackay Airport
Mackay, Queensland, Australia

Public forecast

Using degrees Celsius for public forecast. Weather courtesy of forecast.io.

METAR (pilot weather report)

Retrieved 2018/06/23 13:00 UTC (18 minutes ago):

YBMK 231300Z AUTO 20005KT 9999 // SCT026 16/15 Q1022

TAF (pilot weather forecast)

Forecast is more than 6 hours old.

Closest forecast is Hamilton Island Airport, 50.5 nm (93.5 km) NNW. Retrieved 2018/06/23 06:00 UTC (7 hours ago):

TAF YBHM 230533Z 2306/2318 14020KT 9999 SCT025 BKN035 FM231500 13018KT 9999 -SHRA BKN022 BKN035 OVC050